Time;durP1;ratioP1;P1;durP2;ratioP2;P2;SDS_P1;SDS_P2;PMS_P1;PMS_P2;Temp;Humidity;BMP_temperature;BMP_pressure;BME280_temperature;BME280_humidity;BME280_pressure;Samples;Min_cycle;Max_cycle;Signal;HPM_P1;HPM_P2
2021/01/08 00:00:22;;;;;;;10.73;6.35;;;;;;;3.40;100.00;92680.06;5030615;28;19931;-86
2021/01/08 00:02:48;;;;;;;11.27;5.97;;;;;;;3.42;100.00;92678.16;5030448;28;20065;-87
2021/01/08 00:05:14;;;;;;;;;;;;;;;3.46;100.00;92675.06;5031098;28;20410;-87
2021/01/08 00:07:40;;;;;;;8.95;5.53;;;;;;;3.55;100.00;92674.94;5030630;28;19925;-86
2021/01/08 00:10:08;;;;;;;11.88;6.03;;;;;;;3.60;100.00;92673.47;5030459;28;20489;-87
2021/01/08 00:12:36;;;;;;;13.00;6.60;;;;;;;3.51;100.00;92666.13;5030343;28;20042;-87
2021/01/08 00:15:03;;;;;;;11.68;6.00;;;;;;;3.58;100.00;92670.31;5030479;28;20045;-86
2021/01/08 00:17:30;;;;;;;14.07;6.22;;;;;;;3.61;100.00;92666.59;5030181;28;20418;-87
2021/01/08 00:19:57;;;;;;;12.88;6.60;;;;;;;3.57;100.00;92642.56;5030437;28;20064;-86
2021/01/08 00:22:24;;;;;;;13.35;6.47;;;;;;;3.77;100.00;92662.25;5030523;28;20052;-86
2021/01/08 00:24:52;;;;;;;13.75;7.63;;;;;;;3.78;100.00;92664.63;5033810;28;20060;-87
2021/01/08 00:27:18;;;;;;;12.77;5.50;;;;;;;3.80;100.00;92655.06;5034099;28;20493;-87
2021/01/08 00:29:45;;;;;;;9.85;4.45;;;;;;;3.84;100.00;92674.06;5033987;28;20123;-87
2021/01/08 00:32:12;;;;;;;;;;;;;;;3.86;100.00;92666.28;5034144;28;20045;-87
2021/01/08 00:34:39;;;;;;;16.83;7.15;;;;;;;3.82;100.00;92667.59;5033967;28;20339;-87
2021/01/08 00:37:05;;;;;;;12.95;5.90;;;;;;;3.85;100.00;92668.00;5033953;28;20046;-86
2021/01/08 00:39:32;;;;;;;9.93;5.22;;;;;;;3.87;100.00;92668.63;5033949;28;20049;-87
2021/01/08 00:41:58;;;;;;;;;;;;;;;3.89;100.00;92665.88;5034184;28;20544;-86
2021/01/08 00:44:24;;;;;;;16.65;7.60;;;;;;;3.85;100.00;92673.09;5033654;28;20373;-87
2021/01/08 00:46:52;;;;;;;8.98;4.93;;;;;;;3.84;100.00;92676.59;5033588;28;20045;-87
2021/01/08 00:49:19;;;;;;;9.35;4.63;;;;;;;3.80;100.00;92672.84;5033677;28;20449;-87
2021/01/08 00:51:46;;;;;;;11.88;5.10;;;;;;;3.85;100.00;92677.41;5033794;28;20064;-87
2021/01/08 00:54:12;;;;;;;;;;;;;;;3.86;100.00;92677.22;5034115;28;20099;-88
2021/01/08 00:56:38;;;;;;;11.23;4.38;;;;;;;3.82;100.00;92677.75;5033540;28;19921;-87
2021/01/08 00:59:04;;;;;;;7.88;4.20;;;;;;;3.73;100.00;92665.19;5033295;28;20460;-88
2021/01/08 01:01:31;;;;;;;10.13;5.55;;;;;;;3.88;100.00;92682.09;5033720;28;20056;-89
2021/01/08 01:03:57;;;;;;;;;;;;;;;3.87;100.00;92672.91;5033769;28;20140;-87
2021/01/08 01:06:25;;;;;;;6.95;4.22;;;;;;;3.83;100.00;92680.13;5033535;28;19924;-87
2021/01/08 01:08:51;;;;;;;10.75;4.82;;;;;;;3.80;100.00;92670.31;5033275;28;20489;-88
2021/01/08 01:11:19;;;;;;;7.47;4.38;;;;;;;3.86;100.00;92667.06;5033309;28;20613;-87
2021/01/08 01:13:47;;;;;;;8.10;3.55;;;;;;;3.82;100.00;92665.06;5033130;28;20049;-88
2021/01/08 01:16:14;;;;;;;8.18;3.45;;;;;;;3.81;100.00;92681.28;5033443;28;20045;-87
2021/01/08 01:18:41;;;;;;;7.57;3.25;;;;;;;3.65;100.00;92678.00;5033102;28;20050;-87
2021/01/08 01:21:07;;;;;;;5.07;2.50;;;;;;;3.36;100.00;92677.09;5033087;28;20620;-87
2021/01/08 01:23:35;;;;;;;12.32;4.80;;;;;;;3.14;100.00;92650.91;5033168;28;20052;-87
2021/01/08 01:26:01;;;;;;;15.20;4.68;;;;;;;3.30;100.00;92663.38;5033113;28;20057;-87
2021/01/08 01:28:27;;;;;;;6.40;2.58;;;;;;;3.13;100.00;92644.22;5032912;28;20064;-87
2021/01/08 01:30:53;;;;;;;;;;;;;;;3.00;100.00;92650.72;5033298;28;20405;-88
2021/01/08 01:33:20;;;;;;;8.13;3.67;;;;;;;2.77;100.00;92650.81;5032861;28;19921;-88
2021/01/08 01:35:45;;;;;;;;;;;;;;;2.78;100.00;92648.13;5032821;28;20054;-87
2021/01/08 01:38:12;;;;;;;8.40;4.03;;;;;;;2.67;100.00;92643.50;5032794;28;20355;-88
2021/01/08 01:40:39;;;;;;;11.07;4.63;;;;;;;2.86;100.00;92649.78;5032480;28;20053;-87
2021/01/08 01:43:05;;;;;;;5.30;3.10;;;;;;;2.67;100.00;92640.94;5032619;28;20050;-87
2021/01/08 01:45:31;;;;;;;4.75;3.13;;;;;;;2.72;100.00;92642.97;5032564;28;20552;-87
2021/01/08 01:47:58;;;;;;;;;;;;;;;2.83;100.00;92647.59;5033113;28;20399;-87
2021/01/08 01:50:25;;;;;;;5.60;3.15;;;;;;;2.84;100.00;92641.56;5032603;28;19947;-88
2021/01/08 01:52:51;;;;;;;7.07;3.60;;;;;;;2.84;100.00;92643.31;5032532;28;20050;-87
2021/01/08 01:55:17;;;;;;;;;;;;;;;2.67;100.00;92636.69;5032882;28;20061;-88
2021/01/08 01:57:44;;;;;;;16.15;6.38;;;;;;;2.69;100.00;92649.19;5032929;28;19921;-87
2021/01/08 02:00:11;;;;;;;12.45;4.05;;;;;;;2.60;100.00;92629.94;5032231;28;20076;-88
2021/01/08 02:02:43;;;;;;;5.97;2.58;;;;;;;2.64;100.00;92621.81;5032285;28;20450;-87
2021/01/08 02:05:11;;;;;;;9.50;2.40;;;;;;;2.76;100.00;92623.88;5032264;28;20390;-87
2021/01/08 02:07:43;;;;;;;8.00;3.65;;;;;;;2.61;100.00;92606.94;5032056;28;20053;-87
2021/01/08 02:10:11;;;;;;;4.47;2.55;;;;;;;2.80;100.00;92603.09;5032018;28;20049;-87
2021/01/08 02:12:39;;;;;;;6.47;2.47;;;;;;;3.02;100.00;92615.81;5032310;28;20053;-87
2021/01/08 02:15:09;;;;;;;4.13;1.77;;;;;;;2.92;100.00;92608.47;5032180;28;20060;-87
2021/01/08 02:17:35;;;;;;;5.47;2.05;;;;;;;2.99;100.00;92606.03;5032075;28;20049;-87
2021/01/08 02:20:04;;;;;;;6.07;3.38;;;;;;;2.93;100.00;92611.81;5031907;28;20053;-87
2021/01/08 02:22:39;;;;;;;6.40;2.95;;;;;;;2.85;100.00;92596.69;5031822;28;20053;-87
2021/01/08 02:25:09;;;;;;;7.55;3.05;;;;;;;3.05;100.00;92605.31;5031828;28;20501;-88
2021/01/08 02:27:37;;;;;;;7.75;3.28;;;;;;;3.00;100.00;92596.69;5031725;28;20057;-87
2021/01/08 02:30:04;;;;;;;7.75;3.45;;;;;;;3.07;100.00;92598.28;5031832;28;20064;-87
2021/01/08 02:32:31;;;;;;;9.13;3.72;;;;;;;2.91;100.00;92576.47;5031741;28;20049;-87
2021/01/08 02:34:58;;;;;;;4.88;2.85;;;;;;;3.01;100.00;92583.03;5031647;28;20054;-87
2021/01/08 02:37:25;;;;;;;5.07;2.50;;;;;;;3.14;100.00;92567.16;5031568;28;20478;-87
2021/01/08 02:39:53;;;;;;;3.13;2.30;;;;;;;3.26;100.00;92577.59;5031712;28;20148;-87
2021/01/08 02:42:22;;;;;;;5.43;2.88;;;;;;;3.38;100.00;92581.22;5031549;28;20042;-86
2021/01/08 02:44:48;;;;;;;4.47;2.15;;;;;;;3.28;100.00;92560.47;5031381;28;20452;-87
2021/01/08 02:47:19;;;;;;;7.55;3.08;;;;;;;3.33;100.00;92566.53;5030544;28;20485;-86
2021/01/08 02:49:45;;;;;;;5.55;3.17;;;;;;;3.43;100.00;92568.00;5031337;28;20049;-87
2021/01/08 02:52:12;;;;;;;;;;;;;;;3.53;100.00;92565.16;5031835;28;20514;-86
2021/01/08 02:54:38;;;;;;;5.88;3.65;;;;;;;3.60;100.00;92566.78;5031544;28;19921;-87
2021/01/08 02:57:06;;;;;;;5.72;3.33;;;;;;;3.46;100.00;92548.13;5031343;28;20057;-87
2021/01/08 02:59:34;;;;;;;7.30;2.70;;;;;;;3.59;100.00;92559.34;5031225;28;20531;-87
2021/01/08 03:02:00;;;;;;;5.65;2.53;;;;;;;3.46;100.00;92560.81;5031015;28;20422;-87
2021/01/08 03:04:27;;;;;;;14.93;5.68;;;;;;;3.34;100.00;92557.97;5031347;28;20468;-87
2021/01/08 03:06:53;;;;;;;;;;;;;;;3.50;100.00;92556.16;5031595;28;20073;-87
2021/01/08 03:09:20;;;;;;;9.40;5.40;;;;;;;3.43;100.00;92553.53;5031333;28;19933;-87
2021/01/08 03:11:54;;;;;;;4.75;1.92;;;;;;;3.52;100.00;92555.97;5031146;28;20072;-88
2021/01/08 03:14:21;;;;;;;5.93;2.53;;;;;;;3.47;100.00;92561.59;5031081;28;20045;-88
2021/01/08 03:16:48;;;;;;;5.07;2.92;;;;;;;3.55;100.00;92551.31;5030997;28;20046;-87
2021/01/08 03:19:15;;;;;;;7.20;3.40;;;;;;;3.46;100.00;92540.50;5031122;28;20049;-87
2021/01/08 03:21:40;;;;;;;;;;;;;;;3.66;100.00;92544.16;5031588;28;20045;-87
2021/01/08 03:24:08;;;;;;;3.13;1.95;;;;;;;3.63;100.00;92550.41;5030982;28;20300;-87
2021/01/08 03:26:34;;;;;;;7.97;3.35;;;;;;;3.53;100.00;92511.84;5030831;28;20084;-87
2021/01/08 03:29:00;;;;;;;6.80;2.72;;;;;;;3.67;100.00;92540.66;5030786;28;20053;-87
2021/01/08 03:31:26;;;;;;;7.30;3.53;;;;;;;3.71;100.00;92532.47;5031089;28;20053;-88
2021/01/08 03:33:53;;;;;;;4.97;2.42;;;;;;;3.61;100.00;92521.84;5030875;28;20489;-88
2021/01/08 03:36:20;;;;;;;7.43;2.33;;;;;;;3.63;100.00;92519.13;5030989;28;20417;-88
2021/01/08 03:38:46;;;;;;;;;;;;;;;3.81;100.00;92526.28;5031422;28;20050;-88
2021/01/08 03:41:12;;;;;;;4.40;2.35;;;;;;;3.80;100.00;92530.59;5030698;28;19920;-87
2021/01/08 03:43:38;;;;;;;5.93;3.65;;;;;;;3.80;100.00;92522.97;5030678;28;20575;-88
2021/01/08 03:46:06;;;;;;;7.72;3.67;;;;;;;3.78;100.00;92516.50;5030876;28;20045;-87
2021/01/08 03:48:33;;;;;;;11.25;3.92;;;;;;;3.85;100.00;92509.72;5030475;28;20497;-87
2021/01/08 03:51:00;;;;;;;7.15;3.70;;;;;;;3.89;100.00;92510.91;5030512;28;20547;-87
2021/01/08 03:53:26;;;;;;;5.55;3.47;;;;;;;3.92;100.00;92494.50;5030824;28;20049;-87
2021/01/08 03:55:53;;;;;;;7.57;4.25;;;;;;;3.96;100.00;92504.13;5030641;28;20053;-86
2021/01/08 03:58:19;;;;;;;6.25;3.53;;;;;;;3.86;100.00;92490.97;5033267;28;20045;-87
2021/01/08 04:00:45;;;;;;;6.07;2.97;;;;;;;3.94;100.00;92503.50;5034885;28;20046;-86
2021/01/08 04:03:11;;;;;;;8.82;3.92;;;;;;;3.94;100.00;92495.13;5034676;28;20045;-86
2021/01/08 04:05:37;;;;;;;8.40;4.20;;;;;;;3.94;100.00;92492.56;5034750;28;20103;-86
2021/01/08 04:08:05;;;;;;;9.18;4.07;;;;;;;3.93;100.00;92483.38;5034379;28;20060;-87
2021/01/08 04:10:31;;;;;;;13.05;5.50;;;;;;;3.87;100.00;92473.00;5034691;28;20050;-87
2021/01/08 04:12:57;;;;;;;7.32;4.00;;;;;;;3.97;100.00;92476.94;5034312;28;20419;-86
2021/01/08 04:15:23;;;;;;;9.52;4.72;;;;;;;4.01;100.00;92470.53;5034540;28;20049;-86
2021/01/08 04:17:50;;;;;;;7.20;4.03;;;;;;;4.03;100.00;92462.72;5034447;28;20168;-88
2021/01/08 04:20:16;;;;;;;8.30;3.58;;;;;;;4.05;100.00;92455.69;5034089;28;20486;-86
2021/01/08 04:22:42;;;;;;;10.65;4.50;;;;;;;4.08;100.00;92447.69;5034223;28;20052;-86
2021/01/08 04:25:11;;;;;;;5.50;2.90;;;;;;;4.06;100.00;92447.88;5034106;28;20052;-88
2021/01/08 04:27:37;;;;;;;8.00;4.07;;;;;;;4.09;100.00;92449.25;5033958;28;20493;-86
2021/01/08 04:30:04;;;;;;;6.95;2.95;;;;;;;4.06;100.00;92426.75;5034344;28;20049;-86
2021/01/08 04:32:30;;;;;;;6.43;3.67;;;;;;;4.11;100.00;92427.75;5034091;28;20045;-87
2021/01/08 04:34:57;;;;;;;5.65;3.13;;;;;;;3.99;100.00;92412.25;5033909;28;20084;-87
2021/01/08 04:37:24;;;;;;;6.45;3.63;;;;;;;4.11;100.00;92429.50;5034264;28;20046;-86
2021/01/08 04:39:50;;;;;;;8.90;5.38;;;;;;;4.15;100.00;92435.78;5033743;28;20130;-86
2021/01/08 04:42:17;;;;;;;;;;;;;;;4.15;100.00;92420.53;5034469;28;20076;-86
2021/01/08 04:44:44;;;;;;;7.55;5.28;;;;;;;4.12;100.00;92426.00;5033980;28;19921;-86
2021/01/08 04:47:12;;;;;;;9.07;4.38;;;;;;;4.12;100.00;92411.53;5033779;28;20053;-86
2021/01/08 04:49:38;;;;;;;10.35;6.38;;;;;;;4.10;100.00;92410.94;5033529;28;20490;-86
2021/01/08 04:52:05;;;;;;;9.73;3.78;;;;;;;3.86;100.00;92394.41;5033704;28;20088;-86
2021/01/08 04:54:32;;;;;;;17.02;8.98;;;;;;;4.06;100.00;92421.66;5033509;28;20053;-86
2021/01/08 04:56:59;;;;;;;15.50;6.82;;;;;;;3.98;100.00;92398.00;5033820;28;20057;-86
2021/01/08 04:59:27;;;;;;;10.65;5.97;;;;;;;4.13;100.00;92408.00;5033700;28;20045;-86
2021/01/08 05:01:53;;;;;;;9.73;5.85;;;;;;;4.08;100.00;92402.72;5033394;28;20085;-86
2021/01/08 05:04:19;;;;;;;9.13;5.10;;;;;;;4.24;100.00;92416.06;5033338;28;20052;-86
2021/01/08 05:06:46;;;;;;;;;;;;;;;4.23;100.00;92407.69;5034300;28;20045;-86
2021/01/08 05:09:12;;;;;;;9.10;3.25;;;;;;;4.08;100.00;92407.78;5032351;28;19928;-86
2021/01/08 05:11:38;;;;;;;6.47;2.65;;;;;;;4.03;100.00;92401.72;5033495;28;20046;-86
2021/01/08 05:14:08;;;;;;;10.05;3.72;;;;;;;4.11;100.00;92404.88;5033124;28;20055;-85
2021/01/08 05:16:37;;;;;;;8.10;3.58;;;;;;;4.16;100.00;92409.38;5033159;28;20448;-86
2021/01/08 05:19:05;;;;;;;8.23;4.32;;;;;;;4.19;100.00;92421.72;5033073;28;20095;-85
2021/01/08 05:21:32;;;;;;;9.02;6.40;;;;;;;4.09;100.00;92408.59;5032939;28;20489;-86
2021/01/08 05:24:00;;;;;;;13.40;7.13;;;;;;;4.05;100.00;92400.56;5033045;28;20049;-86
2021/01/08 05:26:27;;;;;;;9.88;6.30;;;;;;;4.07;100.00;92420.72;5033225;28;20125;-85
2021/01/08 05:28:55;;;;;;;10.43;5.78;;;;;;;3.93;100.00;92402.84;5033022;28;20076;-86
2021/01/08 05:31:23;;;;;;;16.52;5.78;;;;;;;3.90;100.00;92412.59;5032962;28;20115;-87
2021/01/08 05:33:51;;;;;;;14.30;5.43;;;;;;;3.78;100.00;92394.56;5032682;28;20057;-87
2021/01/08 05:36:18;;;;;;;14.05;7.43;;;;;;;3.71;100.00;92402.16;5032737;28;20057;-87
2021/01/08 05:38:46;;;;;;;14.40;6.57;;;;;;;3.72;100.00;92404.53;5032827;28;20045;-88
2021/01/08 05:41:13;;;;;;;19.27;8.95;;;;;;;3.72;100.00;92396.91;5032811;28;20513;-86
2021/01/08 05:43:39;;;;;;;;;;;;;;;3.77;100.00;92396.34;5033250;28;20119;-86
2021/01/08 05:46:10;;;;;;;21.58;11.27;;;;;;;3.70;100.00;92396.28;5032711;28;19928;-87
2021/01/08 05:48:39;;;;;;;13.38;6.90;;;;;;;3.64;100.00;92378.47;5032463;28;20065;-86
2021/01/08 05:51:06;;;;;;;20.38;11.20;;;;;;;3.68;100.00;92385.53;5032519;28;20486;-87
2021/01/08 05:53:33;;;;;;;20.13;8.52;;;;;;;3.69;100.00;92364.25;5032701;28;20045;-86
2021/01/08 05:55:59;;;;;;;17.50;7.70;;;;;;;3.85;100.00;92385.22;5032381;28;20107;-86
2021/01/08 05:58:26;;;;;;;;;;;;;;;3.94;100.00;92383.31;5032951;28;20053;-86
2021/01/08 06:00:57;;;;;;;13.65;6.22;;;;;;;3.84;100.00;92386.22;5032315;28;19921;-86
2021/01/08 06:03:24;;;;;;;18.95;6.80;;;;;;;3.90;100.00;92380.38;5032201;28;20045;-88
2021/01/08 06:05:53;;;;;;;15.48;8.15;;;;;;;3.98;100.00;92375.13;5032760;28;20049;-86
2021/01/08 06:08:24;;;;;;;14.32;5.97;;;;;;;4.06;100.00;92379.25;5032112;28;20531;-87
2021/01/08 06:10:53;;;;;;;11.15;6.85;;;;;;;4.08;100.00;92386.69;5032344;28;20049;-87
2021/01/08 06:13:22;;;;;;;11.55;5.18;;;;;;;4.12;100.00;92382.81;5032098;28;20405;-86
2021/01/08 06:15:51;;;;;;;12.60;6.40;;;;;;;4.16;100.00;92376.34;5032043;28;20073;-86
2021/01/08 06:18:19;;;;;;;23.10;14.25;;;;;;;3.96;100.00;92356.75;5032231;28;20104;-86
2021/01/08 06:20:46;;;;;;;16.60;10.52;;;;;;;3.95;100.00;92347.56;5032125;28;20049;-86
2021/01/08 06:23:26;;;;;;;;;;;;;;;4.00;100.00;92357.94;5032625;28;20041;-86
2021/01/08 06:25:54;;;;;;;34.80;17.13;;;;;;;3.82;100.00;92360.19;5031708;28;19921;-86
2021/01/08 06:28:23;;;;;;;24.13;13.13;;;;;;;3.81;100.00;92356.88;5031658;28;20060;-86
2021/01/08 06:30:51;;;;;;;25.98;12.30;;;;;;;3.73;100.00;92341.78;5029065;28;20049;-86
2021/01/08 06:33:24;;;;;;;47.45;10.43;;;;;;;3.91;100.00;92346.38;5031572;28;20057;-86
2021/01/08 06:35:52;;;;;;;31.40;11.45;;;;;;;3.94;100.00;92356.13;5024633;28;20096;-86
2021/01/08 06:38:29;;;;;;;13.07;9.50;;;;;;;3.97;100.00;92358.31;5011948;28;20053;-86
2021/01/08 06:41:04;;;;;;;24.83;13.30;;;;;;;4.07;100.00;92368.09;5011880;28;20532;-86
2021/01/08 06:43:31;;;;;;;19.80;10.75;;;;;;;4.13;100.00;92364.03;5011910;28;20046;-85
2021/01/08 06:46:01;;;;;;;24.70;12.75;;;;;;;4.20;100.00;92372.47;5011891;28;20049;-85
2021/01/08 06:48:31;;;;;;;46.88;20.67;;;;;;;4.12;100.00;92365.78;5011683;28;20110;-85
2021/01/08 06:51:06;;;;;;;34.97;17.55;;;;;;;4.19;100.00;92378.53;5011743;28;20445;-86
2021/01/08 06:53:36;;;;;;;49.33;22.92;;;;;;;4.30;100.00;92377.16;5011820;28;20053;-86
2021/01/08 06:56:04;;;;;;;40.08;21.08;;;;;;;4.12;100.00;92370.88;5011570;28;20519;-87
2021/01/08 06:58:36;;;;;;;30.10;14.43;;;;;;;4.16;100.00;92376.34;5024825;28;20053;-86
2021/01/08 07:01:03;;;;;;;19.30;9.32;;;;;;;4.13;100.00;92386.91;5031223;28;20103;-87
2021/01/08 07:03:29;;;;;;;;;;;;;;;4.24;100.00;92380.47;5031562;28;20053;-86
2021/01/08 07:05:56;;;;;;;39.58;18.83;;;;;;;4.03;100.00;92373.78;5031032;28;19925;-87
2021/01/08 07:08:24;;;;;;;38.72;13.93;;;;;;;4.06;100.00;92381.00;5031051;28;20492;-87
2021/01/08 07:10:51;;;;;;;38.75;17.27;;;;;;;4.23;100.00;92396.72;5031074;28;20474;-86
2021/01/08 07:13:28;;;;;;;23.48;13.35;;;;;;;4.18;100.00;92382.03;5031027;28;20052;-87
2021/01/08 07:15:54;;;;;;;60.75;28.73;;;;;;;4.25;100.00;92390.47;5030907;28;20046;-87
2021/01/08 07:18:26;;;;;;;62.13;29.10;;;;;;;4.33;100.00;92391.25;5030963;28;20054;-87
2021/01/08 07:20:52;;;;;;;51.28;27.77;;;;;;;4.47;100.00;92389.53;5031122;28;20042;-87
2021/01/08 07:23:25;;;;;;;62.25;29.17;;;;;;;4.53;100.00;92386.22;5030998;28;20046;-87
2021/01/08 07:25:54;;;;;;;42.70;22.55;;;;;;;4.61;100.00;92378.41;5030904;28;20561;-87
2021/01/08 07:28:20;;;;;;;47.15;24.08;;;;;;;4.67;100.00;92384.47;5030875;28;20053;-87
2021/01/08 07:31:07;;;;;;;38.55;19.58;;;;;;;4.95;100.00;92391.97;5030503;28;20049;-87
2021/01/08 07:33:34;;;;;;;24.80;12.43;;;;;;;5.20;100.00;92370.22;5023233;28;20049;-86
2021/01/08 07:47:40;;;;;;;21.80;9.20;;;;;;;6.50;100.00;92356.88;5103885;27;811787;-86
2021/01/08 07:50:12;;;;;;;50.38;15.93;;;;;;;6.62;100.00;92357.03;5108578;28;20051;-84
2021/01/08 07:52:40;;;;;;;59.63;22.52;;;;;;;6.73;100.00;92358.13;5108367;28;20074;-85
2021/01/08 07:55:07;;;;;;;38.28;16.13;;;;;;;6.81;100.00;92333.13;5108431;28;20043;-84
2021/01/08 07:58:06;;;;;;;35.60;10.98;;;;;;;6.99;100.00;92325.72;5108318;28;20093;-83
2021/01/08 08:00:33;;;;;;;38.28;13.48;;;;;;;7.03;100.00;92322.53;5108317;28;20044;-85
2021/01/08 08:03:01;;;;;;;27.95;11.60;;;;;;;7.15;100.00;92325.19;5108262;28;20556;-84
2021/01/08 08:05:28;;;;;;;74.20;25.45;;;;;;;7.22;100.00;92327.69;5108175;28;20044;-87
2021/01/08 08:07:57;;;;;;;106.63;32.90;;;;;;;7.32;100.00;92319.56;5108103;28;20052;-86
2021/01/08 08:10:25;;;;;;;71.75;27.05;;;;;;;7.43;100.00;92320.63;5107808;28;20048;-86
2021/01/08 08:12:52;;;;;;;243.07;85.95;;;;;;;7.37;100.00;92303.56;5108387;28;20043;-85
2021/01/08 08:15:18;;;;;;;150.50;51.45;;;;;;;7.61;100.00;92312.19;5107965;28;20477;-85
2021/01/08 08:17:45;;;;;;;99.30;38.80;;;;;;;7.56;100.00;92317.94;5107816;28;20503;-85
2021/01/08 08:20:19;;;;;;;108.03;42.08;;;;;;;7.68;100.00;92317.22;5107747;28;20047;-86
2021/01/08 08:22:46;;;;;;;79.10;33.88;;;;;;;7.68;100.00;92299.34;5084676;28;20512;-83
2021/01/08 08:25:23;;;;;;;46.35;21.20;;;;;;;7.74;100.00;92308.69;5047251;28;20057;-82
2021/01/08 08:27:54;;;;;;;178.10;69.57;;;;;;;7.78;100.00;92299.59;5047271;28;20505;-85
2021/01/08 08:30:21;;;;;;;96.45;39.08;;;;;;;7.96;100.00;92308.25;5047224;28;20053;-85
2021/01/08 08:32:48;;;;;;;90.70;38.80;;;;;;;8.01;100.00;92298.94;5047064;28;20087;-84
2021/01/08 08:35:14;;;;;;;80.65;31.08;;;;;;;8.04;100.00;92312.28;5046888;28;20593;-84
2021/01/08 08:37:49;;;;;;;68.32;27.60;;;;;;;8.05;100.00;92301.06;5047230;28;20056;-84
2021/01/08 08:40:17;;;;;;;63.63;25.52;;;;;;;8.22;100.00;92306.34;5047140;28;20060;-85
2021/01/08 08:42:48;;;;;;;54.28;23.35;;;;;;;8.27;100.00;92296.25;5047003;28;20102;-82
2021/01/08 08:45:22;;;;;;;51.30;20.13;;;;;;;8.38;100.00;92303.16;5046942;28;20072;-84
2021/01/08 08:47:50;;;;;;;62.08;24.35;;;;;;;8.39;100.00;92303.97;5038013;28;20080;-83
2021/01/08 08:50:17;;;;;;;68.47;22.95;;;;;;;8.29;100.00;92281.47;5033461;28;20041;-84
2021/01/08 08:52:44;;;;;;;118.00;32.13;;;;;;;8.44;100.00;92298.97;5033599;28;20049;-85
2021/01/08 08:55:25;;;;;;;107.00;28.65;;;;;;;8.46;100.00;92301.31;5033775;28;20068;-84
2021/01/08 08:57:52;;;;;;;74.30;22.20;;;;;;;8.53;100.00;92313.03;5033330;28;20136;-85
2021/01/08 09:00:21;;;;;;;71.00;20.10;;;;;;;8.50;100.00;92307.53;5033212;28;20508;-81
2021/01/08 09:02:47;;;;;;;102.50;25.25;;;;;;;8.53;100.00;92307.91;5033680;28;20049;-84
2021/01/08 09:05:14;;;;;;;83.03;24.88;;;;;;;8.62;100.00;92318.63;5033453;28;20057;-84
2021/01/08 09:07:47;;;;;;;86.10;25.88;;;;;;;8.66;100.00;92308.72;5033314;28;20050;-83
2021/01/08 09:10:16;;;;;;;77.25;20.98;;;;;;;8.69;100.00;92298.81;5033261;28;20677;-85
2021/01/08 09:12:48;;;;;;;32.75;11.40;;;;;;;8.71;100.00;92295.25;5033062;28;20050;-85
2021/01/08 09:15:21;;;;;;;41.20;15.55;;;;;;;8.74;100.00;92297.41;5032940;28;20378;-84
2021/01/08 09:17:50;;;;;;;66.25;20.75;;;;;;;8.77;100.00;92302.06;5033253;28;20193;-84
2021/01/08 09:20:19;;;;;;;26.35;10.43;;;;;;;8.65;100.00;92277.22;5033196;28;20052;-84
2021/01/08 09:22:46;;;;;;;47.13;13.85;;;;;;;8.84;100.00;92289.91;5033073;28;20041;-83
2021/01/08 09:25:16;;;;;;;23.58;8.15;;;;;;;8.86;100.00;92297.38;5032828;28;20125;-84
2021/01/08 09:27:43;;;;;;;27.67;8.13;;;;;;;8.74;100.00;92280.22;5032832;28;20057;-85
2021/01/08 09:30:11;;;;;;;29.50;7.38;;;;;;;8.84;100.00;92296.84;5033022;28;20044;-85
2021/01/08 09:32:37;;;;;;;23.92;8.77;;;;;;;8.66;100.00;92265.22;5032939;28;20099;-84
2021/01/08 09:35:04;;;;;;;;;;;;;;;8.90;100.00;92294.19;5033070;28;20520;-85
2021/01/08 09:37:38;;;;;;;30.40;10.80;;;;;;;8.78;100.00;92295.94;5032786;28;20297;-83
2021/01/08 09:40:16;;;;;;;23.63;9.07;;;;;;;8.74;100.00;92289.72;5032643;28;20132;-85
2021/01/08 09:42:44;;;;;;;26.23;8.43;;;;;;;8.78;100.00;92285.69;5032556;28;20048;-84
2021/01/08 09:45:21;;;;;;;20.42;7.88;;;;;;;8.87;100.00;92286.94;5032725;28;20395;-85
2021/01/08 09:47:48;;;;;;;34.40;10.90;;;;;;;8.89;100.00;92292.59;5032520;28;20120;-83
2021/01/08 09:50:25;;;;;;;29.23;9.13;;;;;;;8.89;100.00;92292.59;5032433;28;20049;-84
2021/01/08 09:52:52;;;;;;;35.95;12.82;;;;;;;8.91;100.00;92280.38;5032790;28;20053;-84
2021/01/08 09:55:27;;;;;;;25.02;7.53;;;;;;;8.88;100.00;92277.47;5032531;28;20042;-84
2021/01/08 09:57:59;;;;;;;22.95;6.57;;;;;;;8.93;100.00;92272.44;5032426;28;20049;-82
2021/01/08 10:00:33;;;;;;;47.60;13.90;;;;;;;8.95;100.00;92267.91;5031358;28;20056;-84
2021/01/08 10:02:59;;;;;;;93.38;30.33;;;;;;;9.01;100.00;92267.00;5032006;28;20050;-83
2021/01/08 10:05:28;;;;;;;26.77;11.85;;;;;;;8.92;100.00;92240.94;5032141;28;20485;-83
2021/01/08 10:07:55;;;;;;;32.97;12.18;;;;;;;8.96;100.00;92256.66;5032311;28;20060;-84
2021/01/08 10:10:40;;;;;;;20.05;8.32;;;;;;;9.04;100.00;92265.78;5032330;28;20041;-85
2021/01/08 10:13:14;;;;;;;15.82;6.03;;;;;;;9.07;100.00;92253.31;5032048;28;20049;-84
2021/01/08 10:15:43;;;;;;;9.02;3.42;;;;;;;9.08;100.00;92238.72;5031891;28;20049;-84
2021/01/08 10:18:10;;;;;;;7.60;3.90;;;;;;;9.16;100.00;92245.28;5032134;28;20072;-85
2021/01/08 10:20:45;;;;;;;4.00;2.40;;;;;;;9.11;100.00;92240.81;5032413;28;20482;-82
2021/01/08 10:23:13;;;;;;;8.95;2.85;;;;;;;9.08;100.00;92225.91;5025448;28;20053;-82
2021/01/08 10:25:40;;;;;;;10.45;3.20;;;;;;;9.19;100.00;92232.00;5019999;28;20486;-85
2021/01/08 10:28:18;;;;;;;6.13;2.05;;;;;;;9.32;100.00;92234.34;5020268;28;20466;-82
2021/01/08 10:30:46;;;;;;;13.02;3.97;;;;;;;9.40;100.00;92227.31;5021411;28;20049;-84
2021/01/08 10:33:13;;;;;;;7.40;3.33;;;;;;;9.43;100.00;92230.19;5020120;28;20045;-83
2021/01/08 10:35:45;;;;;;;7.53;2.40;;;;;;;9.27;100.00;92212.97;5021560;28;20417;-84
2021/01/08 10:38:12;;;;;;;5.85;2.85;;;;;;;9.36;100.00;92212.38;5021993;28;20041;-86
2021/01/08 10:40:38;;;;;;;7.78;2.53;;;;;;;9.50;100.00;92224.94;5019945;28;20171;-85
2021/01/08 10:43:05;;;;;;;7.35;3.55;;;;;;;9.46;100.00;92222.06;5020914;28;20042;-84
2021/01/08 10:45:31;;;;;;;5.05;2.00;;;;;;;9.59;100.00;92225.38;5020269;28;20053;-84
2021/01/08 10:47:58;;;;;;;5.50;2.33;;;;;;;9.59;100.00;92223.56;5022048;28;20042;-85
2021/01/08 10:50:24;;;;;;;3.47;1.92;;;;;;;9.68;100.00;92221.41;5020015;28;20045;-85
2021/01/08 10:52:51;;;;;;;2.97;1.85;;;;;;;9.74;100.00;92214.63;5019967;28;20053;-84
2021/01/08 10:55:17;;;;;;;;;;;;;;;9.82;100.00;92206.53;5020456;28;20409;-86
2021/01/08 10:57:43;;;;;;;5.57;2.30;;;;;;;9.88;100.00;92195.38;5020895;28;20361;-85
2021/01/08 11:00:13;;;;;;;3.60;1.60;;;;;;;10.03;100.00;92197.44;5021416;28;20057;-84
2021/01/08 11:02:40;;;;;;;3.22;1.63;;;;;;;10.12;100.00;92179.06;5031297;28;20049;-81
2021/01/08 11:05:08;;;;;;;5.85;2.85;;;;;;;10.18;100.00;92178.16;5028227;28;20049;-81
2021/01/08 11:07:34;;;;;;;3.35;1.73;;;;;;;10.26;100.00;92180.34;5031066;28;20045;-81
2021/01/08 11:10:01;;;;;;;5.22;2.38;;;;;;;10.36;100.00;92189.97;5027403;28;20042;-83
2021/01/08 11:12:28;;;;;;;7.45;2.08;;;;;;;10.46;100.00;92152.69;5021066;28;20045;-82
2021/01/08 11:14:54;;;;;;;6.43;2.67;;;;;;;10.51;100.00;92145.06;5019206;28;20088;-82
2021/01/08 11:17:21;;;;;;;;;;;;;;;10.47;100.00;92154.22;5031202;28;20064;-81
2021/01/08 11:19:48;;;;;;;7.13;3.58;;;;;;;10.43;100.00;92146.22;5030917;28;19921;-81
2021/01/08 11:22:14;;;;;;;8.48;3.47;;;;;;;10.36;100.00;92137.84;5030827;28;20045;-83
2021/01/08 11:24:40;;;;;;;;;;;;;;;10.22;100.00;92119.44;5026435;28;20053;-80
2021/01/08 11:27:07;;;;;;;10.48;1.88;;;;;;;10.17;100.00;92115.00;5024466;28;19962;-82
2021/01/08 11:29:34;;;;;;;5.47;2.00;;;;;;;10.18;100.00;92116.56;5017568;28;20054;-86
2021/01/08 11:32:00;;;;;;;8.82;2.58;;;;;;;10.25;100.00;92129.25;5030888;28;20048;-81
2021/01/08 11:34:27;;;;;;;;;;;;;;;10.31;100.00;92128.31;5031066;28;20056;-80
2021/01/08 11:36:57;;;;;;;3.47;1.90;;;;;;;10.27;100.00;92133.13;5030876;28;19929;-81
2021/01/08 11:39:24;;;;;;;3.60;2.05;;;;;;;10.14;100.00;92123.19;5030644;28;20580;-81
2021/01/08 11:41:54;;;;;;;9.57;2.90;;;;;;;10.23;100.00;92118.44;5030752;28;20041;-81
2021/01/08 11:44:21;;;;;;;10.18;4.68;;;;;;;10.07;100.00;92087.41;5030688;28;20049;-81
2021/01/08 11:46:48;;;;;;;6.20;2.85;;;;;;;10.31;100.00;92117.28;5030715;28;20401;-82